Time;durP1;ratioP1;P1;durP2;ratioP2;P2;SDS_P1;SDS_P2;PMS_P1;PMS_P2;Temp;Humidity;BMP_temperature;BMP_pressure;BME280_temperature;BME280_humidity;BME280_pressure;Samples;Min_cycle;Max_cycle;Signal;HPM_P1;HPM_P2
2023/04/05 00:00:37;;;;;;;7.60;2.75;;;2.60;71.20;;;;;;6194263;23;20074;-81
2023/04/05 00:03:08;;;;;;;6.63;2.97;;;2.50;71.60;;;;;;6193321;23;20024;-80
2023/04/05 00:05:37;;;;;;;8.45;3.35;;;2.50;71.70;;;;;;6218274;23;20071;-80
2023/04/05 00:08:12;;;;;;;6.28;2.88;;;2.60;71.70;;;;;;6194948;23;20020;-80
2023/04/05 00:10:39;;;;;;;6.80;3.28;;;2.40;71.40;;;;;;6194655;23;20012;-80
2023/04/05 00:13:07;;;;;;;6.40;2.40;;;2.50;71.60;;;;;;6194596;23;20021;-81
2023/04/05 00:15:34;;;;;;;5.18;2.22;;;2.50;71.80;;;;;;6194503;23;20070;-80
2023/04/05 00:18:02;;;;;;;7.20;2.67;;;2.50;71.60;;;;;;6194116;23;20034;-80
2023/04/05 00:20:29;;;;;;;7.70;2.95;;;2.40;71.70;;;;;;6194386;23;20489;-80
2023/04/05 00:22:56;;;;;;;7.38;3.08;;;2.20;71.80;;;;;;6219630;23;20020;-80
2023/04/05 00:25:24;;;;;;;5.90;2.00;;;2.40;71.80;;;;;;6194053;23;20106;-80
2023/04/05 00:27:51;;;;;;;7.22;2.80;;;2.50;71.70;;;;;;6218843;23;20032;-80
2023/04/05 00:30:21;;;;;;;6.28;2.40;;;2.40;71.70;;;;;;6196006;23;20110;-80
2023/04/05 00:32:50;;;;;;;6.82;2.35;;;3.90;72.40;;;;;;6246613;23;20047;-81
2023/04/05 00:35:17;;;;;;;5.88;2.67;;;3.10;72.30;;;;;;6194743;23;20027;-80
2023/04/05 00:37:44;;;;;;;8.23;2.88;;;2.40;72.10;;;;;;6196200;23;20730;-80
2023/04/05 00:40:12;;;;;;;7.18;3.85;;;2.10;71.70;;;;;;6197018;23;20024;-81
2023/04/05 00:42:39;;;;;;;7.43;2.78;;;2.30;72.10;;;;;;6196073;23;20012;-81
2023/04/05 00:45:07;;;;;;;5.80;2.35;;;2.40;72.50;;;;;;6195733;23;20027;-80
2023/04/05 00:47:34;;;;;;;9.25;2.70;;;2.50;72.50;;;;;;6195925;23;20023;-80
2023/04/05 00:50:02;;;;;;;7.13;3.15;;;2.40;72.10;;;;;;6222829;23;20916;-80
2023/04/05 00:52:29;;;;;;;6.70;3.40;;;2.40;72.10;;;;;;6196886;23;20020;-80
2023/04/05 00:54:57;;;;;;;9.63;3.10;;;1.80;71.90;;;;;;6196378;23;20028;-80
2023/04/05 00:57:25;;;;;;;6.10;3.38;;;2.40;72.10;;;;;;6196274;23;20034;-81
2023/04/05 00:59:52;;;;;;;7.45;3.00;;;1.70;72.20;;;;;;6221181;23;20024;-81
2023/04/05 01:02:27;;;;;;;9.57;3.47;;;2.60;72.50;;;;;;6195705;23;20027;-81
2023/04/05 01:05:01;;;;;;;9.00;3.42;;;2.30;72.40;;;;;;6194517;23;20012;-80
2023/04/05 01:07:41;;;;;;;8.85;3.70;;;2.30;72.60;;;;;;6195760;23;20095;-80
2023/04/05 01:10:12;;;;;;;7.85;3.45;;;2.70;72.70;;;;;;6221779;23;20020;-81
2023/04/05 01:12:40;;;;;;;7.93;3.45;;;2.20;73.10;;;;;;6196937;23;20043;-80
2023/04/05 01:15:08;;;;;;;8.95;4.18;;;2.10;73.00;;;;;;6195045;23;20791;-80
2023/04/05 01:17:38;;;;;;;9.00;3.95;;;2.20;73.30;;;;;;6196036;23;20062;-80
2023/04/05 01:20:09;;;;;;;7.88;3.33;;;2.10;73.10;;;;;;6196871;23;20321;-80
2023/04/05 01:22:53;;;;;;;8.80;4.20;;;2.00;73.20;;;;;;6194770;23;20016;-80
2023/04/05 01:25:37;;;;;;;8.57;3.72;;;2.00;73.10;;;;;;6220772;23;20716;-80
2023/04/05 01:28:42;;;;;;;7.68;4.05;;;2.10;73.30;;;;;;6194764;23;20119;-80
2023/04/05 01:31:21;;;;;;;9.63;3.28;;;2.10;73.20;;;;;;6194513;23;20023;-80
2023/04/05 01:33:56;;;;;;;8.70;3.50;;;2.00;73.30;;;;;;6196477;23;20051;-80
2023/04/05 01:36:32;;;;;;;5.72;2.78;;;2.00;73.40;;;;;;6195589;23;20051;-81
2023/04/05 01:39:03;;;;;;;7.47;3.05;;;2.00;73.60;;;;;;6196157;23;20023;-81
2023/04/05 01:41:31;;;;;;;9.18;3.72;;;2.00;73.80;;;;;;6197349;23;20035;-80
2023/04/05 01:43:58;;;;;;;6.93;3.20;;;1.90;73.80;;;;;;6222063;23;20309;-80
2023/04/05 01:46:27;;;;;;;8.68;3.50;;;1.90;73.90;;;;;;6221100;23;20055;-80
2023/04/05 01:48:54;;;;;;;8.10;3.88;;;1.90;73.90;;;;;;6194847;23;20347;-80
2023/04/05 01:51:21;;;;;;;7.57;3.75;;;1.90;73.80;;;;;;6220272;23;20017;-81
2023/04/05 01:53:49;;;;;;;7.07;3.40;;;2.00;74.20;;;;;;6195479;23;20098;-80
2023/04/05 01:56:16;;;;;;;7.25;3.13;;;1.90;74.00;;;;;;6194514;23;20415;-80
2023/04/05 01:58:43;;;;;;;8.70;3.88;;;2.00;74.10;;;;;;6194600;23;20074;-80
2023/04/05 02:01:10;;;;;;;7.50;2.60;;;1.80;73.70;;;;;;6194849;23;20107;-81
2023/04/05 02:03:37;;;;;;;6.85;3.25;;;2.00;73.90;;;;;;6194312;23;20052;-80
2023/04/05 02:06:05;;;;;;;7.72;2.88;;;1.80;74.00;;;;;;6189103;23;20012;-80
2023/04/05 02:08:32;;;;;;;8.13;3.38;;;1.90;74.50;;;;;;6189232;23;20798;-80
2023/04/05 02:10:59;;;;;;;6.95;3.05;;;1.90;73.80;;;;;;6189266;23;20101;-81
2023/04/05 02:13:26;;;;;;;7.75;3.55;;;1.90;74.20;;;;;;6188315;23;20044;-80
2023/04/05 02:15:54;;;;;;;6.15;2.85;;;1.90;74.10;;;;;;6212832;23;20019;-80
2023/04/05 02:18:21;;;;;;;6.40;3.08;;;2.00;74.30;;;;;;6189809;23;20352;-80
2023/04/05 02:20:49;;;;;;;8.13;3.40;;;1.90;74.30;;;;;;6187293;23;20664;-80
2023/04/05 02:23:19;;;;;;;9.15;3.58;;;1.90;74.40;;;;;;6188333;23;20024;-80
2023/04/05 02:25:46;;;;;;;8.30;3.28;;;1.90;75.30;;;;;;6188773;23;20826;-80
2023/04/05 02:28:14;;;;;;;7.15;3.20;;;1.90;74.60;;;;;;6214129;23;20091;-80
2023/04/05 02:30:41;;;;;;;8.77;4.20;;;1.80;74.50;;;;;;6190606;23;20025;-81
2023/04/05 02:33:09;;;;;;;10.55;4.07;;;1.80;74.70;;;;;;6213406;23;20103;-80
2023/04/05 02:35:36;;;;;;;10.02;4.30;;;1.80;74.70;;;;;;6214146;23;20026;-80
2023/04/05 02:38:04;;;;;;;8.27;3.35;;;1.80;75.00;;;;;;6189521;23;20104;-81
2023/04/05 02:40:33;;;;;;;8.45;4.22;;;1.90;74.80;;;;;;6189682;23;20025;-80
2023/04/05 02:43:00;;;;;;;12.43;4.47;;;1.30;74.80;;;;;;6214642;23;20026;-81
2023/04/05 02:45:28;;;;;;;9.73;4.10;;;1.90;75.50;;;;;;6214254;23;20752;-80
2023/04/05 02:47:57;;;;;;;8.43;3.88;;;1.80;75.20;;;;;;6190537;23;20078;-81
2023/04/05 02:50:28;;;;;;;10.50;4.50;;;1.80;75.10;;;;;;6189968;23;20051;-80
2023/04/05 02:52:55;;;;;;;13.25;5.47;;;1.70;75.00;;;;;;6214372;23;20048;-80
2023/04/05 02:55:22;;;;;;;12.30;4.78;;;1.70;75.30;;;;;;6189468;23;20029;-80
2023/04/05 02:57:49;;;;;;;10.65;4.03;;;1.70;75.30;;;;;;6189567;23;20020;-80
2023/04/05 03:00:33;;;;;;;10.70;3.80;;;1.70;75.30;;;;;;6190410;23;20024;-80
2023/04/05 03:03:01;;;;;;;13.88;5.05;;;1.70;75.20;;;;;;6189158;23;20031;-80
2023/04/05 03:05:29;;;;;;;15.43;5.13;;;1.70;75.20;;;;;;6189927;23;20024;-80
2023/04/05 03:07:58;;;;;;;12.85;4.53;;;1.60;75.40;;;;;;6188287;23;20031;-80
2023/04/05 03:10:33;;;;;;;11.27;4.95;;;1.40;75.20;;;;;;6187551;23;20032;-80
2023/04/05 03:13:10;;;;;;;8.00;3.20;;;1.60;75.40;;;;;;6188877;23;20826;-80
2023/04/05 03:15:37;;;;;;;8.00;3.30;;;1.40;75.00;;;;;;6187686;23;20070;-80
2023/04/05 03:18:10;;;;;;;9.48;3.83;;;1.60;75.40;;;;;;6212062;23;20028;-81
2023/04/05 03:20:39;;;;;;;8.73;3.70;;;0.30;74.90;;;;;;6211672;23;20024;-80
2023/04/05 03:23:13;;;;;;;7.95;4.07;;;1.80;75.70;;;;;;6212601;23;20123;-80
2023/04/05 03:25:41;;;;;;;11.80;3.55;;;1.60;75.60;;;;;;6213211;23;20443;-80
2023/04/05 03:28:09;;;;;;;4.63;2.80;;;2.00;76.00;;;;;;6189901;23;20029;-80
2023/04/05 03:30:41;;;;;;;8.15;3.08;;;1.50;75.90;;;;;;6212846;23;20079;-80
2023/04/05 03:33:17;;;;;;;5.32;2.75;;;0.30;75.30;;;;;;6189833;23;20020;-80
2023/04/05 03:35:47;;;;;;;6.50;2.72;;;1.40;75.90;;;;;;6187036;23;20031;-80
2023/04/05 03:38:16;;;;;;;7.78;3.15;;;1.50;76.30;;;;;;6211592;23;20030;-80
2023/04/05 03:40:57;;;;;;;7.82;2.80;;;1.50;76.00;;;;;;6187334;23;20613;-80
2023/04/05 03:43:26;;;;;;;9.18;3.33;;;2.10;76.70;;;;;;6185868;23;20492;-80
2023/04/05 03:45:53;;;;;;;8.02;3.30;;;0.70;76.20;;;;;;6212866;23;20020;-80
2023/04/05 03:48:21;;;;;;;9.32;3.70;;;1.50;76.30;;;;;;6213066;23;20444;-80
2023/04/05 03:50:49;;;;;;;9.18;3.40;;;0.70;75.80;;;;;;6187251;23;20025;-80
2023/04/05 03:53:17;;;;;;;10.52;3.50;;;1.40;76.80;;;;;;6187746;23;20026;-80
2023/04/05 03:55:49;;;;;;;8.30;3.35;;;0.30;76.10;;;;;;6188840;23;20104;-80
2023/04/05 03:58:20;;;;;;;7.80;3.05;;;1.90;77.20;;;;;;6189164;23;20464;-80
2023/04/05 04:00:49;;;;;;;12.18;4.38;;;1.30;76.80;;;;;;6186242;23;20021;-80
2023/04/05 04:03:20;;;;;;;10.73;4.32;;;1.30;76.90;;;;;;6188229;23;20079;-80
2023/04/05 04:05:50;;;;;;;8.77;3.03;;;1.30;77.00;;;;;;6189794;23;20029;-80
2023/04/05 04:08:18;;;;;;;8.70;3.70;;;1.10;77.40;;;;;;6212987;23;20021;-80
2023/04/05 04:10:46;;;;;;;11.27;4.30;;;1.10;77.50;;;;;;6187046;23;20475;-80
2023/04/05 04:13:18;;;;;;;5.85;3.13;;;1.20;77.70;;;;;;6212724;23;20016;-80
2023/04/05 04:15:51;;;;;;;9.27;4.55;;;1.20;77.90;;;;;;6190296;23;20745;-80
2023/04/05 04:18:44;;;;;;;9.48;4.43;;;1.20;77.90;;;;;;6211463;23;20035;-80
2023/04/05 04:21:31;;;;;;;13.18;4.82;;;1.60;78.30;;;;;;6215242;23;20040;-80
2023/04/05 04:24:08;;;;;;;9.43;5.05;;;1.20;78.10;;;;;;6217080;23;20024;-79
2023/04/05 04:26:54;;;;;;;11.60;5.22;;;1.90;78.50;;;;;;6218778;23;20027;-80
2023/04/05 04:29:45;;;;;;;12.13;5.05;;;1.40;78.40;;;;;;6216839;23;20103;-80
2023/04/05 04:32:52;;;;;;;11.73;4.50;;;1.20;78.60;;;;;;6195568;23;20352;-80
2023/04/05 04:35:37;;;;;;;10.95;5.05;;;1.10;78.40;;;;;;6225382;23;20036;-79
2023/04/05 04:38:33;;;;;;;14.43;4.18;;;1.40;78.80;;;;;;6211569;23;20027;-80
2023/04/05 04:41:21;;;;;;;11.40;5.03;;;1.10;78.40;;;;;;6214392;23;20753;-80
2023/04/05 04:44:07;;;;;;;10.48;4.10;;;1.20;78.50;;;;;;6215808;23;20074;-80
2023/04/05 04:46:43;;;;;;;12.43;4.70;;;1.20;78.40;;;;;;6190480;23;20027;-80
2023/04/05 04:49:36;;;;;;;9.95;4.22;;;1.10;78.30;;;;;;6216514;23;20657;-80
2023/04/05 04:52:03;;;;;;;24.35;5.40;;;2.30;78.80;;;;;;6189579;23;20044;-80
2023/04/05 04:54:32;;;;;;;12.60;5.18;;;1.30;78.40;;;;;;6188669;23;20099;-80
2023/04/05 04:57:01;;;;;;;9.52;4.38;;;1.30;78.00;;;;;;6191112;23;20143;-80
2023/04/05 04:59:28;;;;;;;11.90;4.88;;;1.30;78.00;;;;;;6191754;23;20645;-80
2023/04/05 05:01:55;;;;;;;10.98;4.43;;;1.20;78.30;;;;;;6214354;23;20367;-79
2023/04/05 05:04:23;;;;;;;11.25;4.03;;;1.20;78.20;;;;;;6186736;23;20024;-80
2023/04/05 05:06:52;;;;;;;11.32;5.30;;;1.20;78.10;;;;;;6185965;23;20809;-80
2023/04/05 05:09:19;;;;;;;7.97;3.90;;;1.10;78.30;;;;;;6214646;23;20837;-80
2023/04/05 05:11:55;;;;;;;12.20;5.57;;;1.20;78.50;;;;;;6188651;23;20028;-80
2023/04/05 05:14:22;;;;;;;10.45;5.03;;;1.30;78.20;;;;;;6211718;23;20020;-79
2023/04/05 05:16:49;;;;;;;14.77;5.10;;;1.20;78.20;;;;;;6187776;23;20020;-79
2023/04/05 05:19:18;;;;;;;9.45;5.25;;;1.20;78.30;;;;;;6190888;23;20017;-80
2023/04/05 05:21:49;;;;;;;13.77;5.00;;;1.40;78.20;;;;;;6192144;23;20383;-80
2023/04/05 05:24:16;;;;;;;11.55;5.78;;;1.30;77.90;;;;;;6188828;23;20082;-79
2023/04/05 05:26:43;;;;;;;12.15;4.95;;;1.40;78.00;;;;;;6189026;23;20474;-79
2023/04/05 05:29:10;;;;;;;7.35;4.15;;;1.30;77.70;;;;;;6190498;23;20026;-80
2023/04/05 05:31:40;;;;;;;10.93;4.85;;;1.40;78.00;;;;;;6191351;23;20024;-80
2023/04/05 05:34:08;;;;;;;10.43;5.43;;;1.40;77.90;;;;;;6217260;23;20058;-80
2023/04/05 05:36:37;;;;;;;10.82;5.10;;;1.50;77.80;;;;;;6191784;23;20111;-80
2023/04/05 05:39:05;;;;;;;12.30;4.70;;;1.40;77.00;;;;;;6189802;23;20102;-80
2023/04/05 05:41:33;;;;;;;8.65;4.35;;;1.50;77.40;;;;;;6190897;23;20012;-80
2023/04/05 05:44:00;;;;;;;10.02;4.60;;;1.50;77.00;;;;;;6191289;23;20020;-80
2023/04/05 05:46:27;;;;;;;9.98;4.18;;;1.50;77.00;;;;;;6191746;23;20016;-80
2023/04/05 05:48:55;;;;;;;9.27;4.07;;;1.50;76.10;;;;;;6191213;23;20044;-80
2023/04/05 05:51:23;;;;;;;8.40;3.33;;;0.60;75.40;;;;;;6205183;23;20024;-80
2023/04/05 05:53:51;;;;;;;10.77;3.42;;;1.60;75.50;;;;;;6177056;23;20464;-80
2023/04/05 05:56:18;;;;;;;6.85;3.10;;;1.70;75.30;;;;;;6207243;23;20036;-79
2023/04/05 05:58:45;;;;;;;9.38;3.95;;;2.00;74.80;;;;;;6205798;23;20032;-80
2023/04/05 06:01:13;;;;;;;5.38;2.38;;;1.80;74.50;;;;;;6201173;23;20478;-80
2023/04/05 06:03:40;;;;;;;4.97;2.75;;;1.90;73.60;;;;;;6202304;23;20020;-80
2023/04/05 06:06:10;;;;;;;5.88;2.78;;;1.50;73.10;;;;;;6179996;23;20751;-79
2023/04/05 06:08:37;;;;;;;8.88;3.42;;;2.20;73.00;;;;;;6211547;23;20039;-80
2023/04/05 06:11:15;;;;;;;7.72;2.75;;;2.20;72.70;;;;;;6217192;23;20444;-80
2023/04/05 06:13:45;;;;;;;7.40;2.70;;;2.50;72.20;;;;;;6181469;23;20086;-81
2023/04/05 06:16:12;;;;;;;6.40;2.08;;;2.70;72.10;;;;;;6180584;23;20070;-79
2023/04/05 06:18:40;;;;;;;4.32;2.03;;;3.00;70.50;;;;;;6179660;23;20024;-80
2023/04/05 06:21:08;;;;;;;7.43;1.88;;;2.80;69.30;;;;;;6178800;23;20016;-80
2023/04/05 06:23:36;;;;;;;7.78;2.83;;;2.80;68.70;;;;;;6181662;23;20035;-80
2023/04/05 06:26:03;;;;;;;6.07;2.50;;;2.60;68.20;;;;;;6179648;23;20012;-80
2023/04/05 06:28:31;;;;;;;5.38;2.10;;;3.10;69.50;;;;;;6186195;23;20549;-79
2023/04/05 06:30:58;;;;;;;3.50;1.65;;;3.20;68.20;;;;;;6202820;23;20020;-79
2023/04/05 06:33:26;;;;;;;4.32;1.40;;;3.70;68.20;;;;;;6177685;23;20028;-79
2023/04/05 06:35:54;;;;;;;6.82;2.13;;;3.30;66.70;;;;;;6194835;23;20043;-80
2023/04/05 06:38:24;;;;;;;4.65;2.03;;;3.40;67.00;;;;;;6218262;23;20020;-80
2023/04/05 06:40:52;;;;;;;5.75;2.63;;;3.60;65.80;;;;;;6179730;23;20024;-79
2023/04/05 06:43:19;;;;;;;5.15;1.98;;;5.10;66.70;;;;;;6176129;23;20120;-80
2023/04/05 06:45:47;;;;;;;4.75;1.77;;;3.70;65.80;;;;;;6177855;23;20016;-80
2023/04/05 06:48:14;;;;;;;5.95;2.28;;;4.50;65.70;;;;;;6177856;23;20060;-79
2023/04/05 06:50:41;;;;;;;5.55;2.15;;;3.90;64.80;;;;;;6180110;23;20034;-80
2023/04/05 06:53:09;;;;;;;4.35;2.17;;;3.80;64.40;;;;;;6177182;23;20454;-79
2023/04/05 06:55:37;;;;;;;4.50;2.10;;;3.90;64.80;;;;;;6177753;23;20167;-79
2023/04/05 06:58:04;;;;;;;4.93;2.03;;;4.00;65.10;;;;;;6178810;23;20369;-79
2023/04/05 07:00:31;;;;;;;4.60;1.70;;;4.10;64.80;;;;;;6177554;23;20070;-79
2023/04/05 07:02:58;;;;;;;7.18;2.50;;;4.10;64.00;;;;;;6172658;23;20024;-79
2023/04/05 07:05:26;;;;;;;6.70;2.17;;;4.00;64.30;;;;;;6180663;23;20035;-79
2023/04/05 07:07:54;;;;;;;4.35;2.10;;;4.10;64.80;;;;;;6179388;23;20650;-80
2023/04/05 07:10:21;;;;;;;9.20;2.22;;;4.10;64.40;;;;;;6178876;23;20034;-79
2023/04/05 07:12:49;;;;;;;5.25;2.17;;;4.10;63.90;;;;;;6203172;23;20024;-78
2023/04/05 07:15:17;;;;;;;5.63;1.65;;;4.20;64.00;;;;;;6178333;23;20339;-79
2023/04/05 07:46:22;;;;;;;;;;;4.70;60.90;;;;;;6200440;23;20032;-79
2023/04/05 07:48:49;;;;;;;5.38;1.65;;;4.90;60.60;;;;;;6203552;23;19920;-79
2023/04/05 07:51:16;;;;;;;4.45;1.92;;;4.90;60.20;;;;;;6202345;23;20363;-79
2023/04/05 07:53:43;;;;;;;7.25;1.75;;;5.00;60.10;;;;;;6206187;23;20020;-80
2023/04/05 07:56:13;;;;;;;6.00;2.10;;;5.10;60.20;;;;;;6202146;23;20102;-79
2023/04/05 07:58:40;;;;;;;5.15;2.03;;;5.00;61.10;;;;;;6202212;23;20055;-79
2023/04/05 08:01:09;;;;;;;4.50;1.80;;;5.10;59.90;;;;;;6178732;23;20370;-79
2023/04/05 08:03:38;;;;;;;5.93;2.35;;;5.30;60.10;;;;;;6209178;23;20016;-79
2023/04/05 08:06:16;;;;;;;5.45;2.25;;;5.20;59.30;;;;;;6170508;23;20102;-79
2023/04/05 08:08:46;;;;;;;4.03;2.15;;;5.10;59.10;;;;;;6175606;23;20457;-79
2023/04/05 08:11:13;;;;;;;5.38;2.17;;;5.00;59.50;;;;;;6175892;23;20024;-80
2023/04/05 08:13:41;;;;;;;7.18;2.30;;;4.90;58.40;;;;;;6173314;23;20024;-79
2023/04/05 08:16:09;;;;;;;4.25;1.80;;;5.00;59.70;;;;;;6174426;23;20376;-79
2023/04/05 08:18:37;;;;;;;3.92;1.67;;;5.20;59.00;;;;;;6175501;23;20032;-79
2023/04/05 08:21:05;;;;;;;6.50;1.70;;;5.20;58.80;;;;;;6174005;23;20052;-79
2023/04/05 08:23:32;;;;;;;4.78;1.90;;;5.20;58.50;;;;;;6172876;23;20015;-80
2023/04/05 08:26:00;;;;;;;4.22;1.77;;;5.40;58.50;;;;;;6199028;23;20025;-79
2023/04/05 08:28:28;;;;;;;4.38;1.88;;;5.40;57.50;;;;;;6173307;23;20032;-80
2023/04/05 08:30:57;;;;;;;3.35;1.55;;;5.50;57.50;;;;;;6172768;23;20399;-79
2023/04/05 08:33:25;;;;;;;6.70;1.80;;;5.80;57.80;;;;;;6173042;23;20078;-78
2023/04/05 08:35:52;;;;;;;4.68;1.92;;;5.60;57.60;;;;;;6172920;23;20428;-78
2023/04/05 08:38:20;;;;;;;3.80;1.95;;;5.80;58.70;;;;;;6172720;23;20148;-79
2023/04/05 08:40:47;;;;;;;3.95;2.10;;;5.80;57.50;;;;;;6176294;23;20423;-76
2023/04/05 08:43:44;;;;;;;6.07;2.20;;;5.80;57.60;;;;;;6200521;23;20027;-79
2023/04/05 08:46:16;;;;;;;7.18;2.10;;;5.80;57.40;;;;;;6190647;23;20020;-79
2023/04/05 08:48:44;;;;;;;4.30;1.40;;;5.60;57.20;;;;;;6173543;23;20175;-79
2023/04/05 08:51:11;;;;;;;5.82;2.33;;;5.70;57.00;;;;;;6174400;23;20028;-79
2023/04/05 08:53:38;;;;;;;4.57;1.85;;;6.00;56.90;;;;;;6197088;23;20025;-78
2023/04/05 08:56:07;;;;;;;3.45;1.80;;;5.80;56.80;;;;;;6172766;23;20028;-78
2023/04/05 08:58:36;;;;;;;4.85;2.20;;;5.80;57.20;;;;;;6198147;23;20395;-78
2023/04/05 09:01:05;;;;;;;5.95;2.45;;;6.40;57.20;;;;;;6174141;23;20042;-78
2023/04/05 09:03:36;;;;;;;6.93;2.58;;;6.50;56.60;;;;;;6174334;23;20044;-79
2023/04/05 09:06:08;;;;;;;6.15;2.50;;;6.40;56.50;;;;;;6204830;23;20027;-79
2023/04/05 09:08:36;;;;;;;7.10;3.03;;;6.40;57.10;;;;;;6179943;23;20649;-79
2023/04/05 09:11:04;;;;;;;5.60;2.67;;;6.40;56.60;;;;;;6177300;23;20051;-78
2023/04/05 09:13:31;;;;;;;5.82;2.22;;;6.30;56.00;;;;;;6203339;23;20479;-79
2023/04/05 09:16:01;;;;;;;3.63;1.85;;;5.70;56.50;;;;;;6180705;23;20450;-79
2023/04/05 09:18:31;;;;;;;5.50;3.15;;;6.70;57.30;;;;;;6180702;23;20407;-79
2023/04/05 09:21:05;;;;;;;7.60;2.53;;;6.90;57.50;;;;;;6177588;23;20101;-78
2023/04/05 09:23:36;;;;;;;5.80;2.65;;;6.80;56.10;;;;;;6178958;23;20048;-78
2023/04/05 09:26:21;;;;;;;5.82;2.63;;;6.90;55.80;;;;;;6179185;23;20356;-78
2023/04/05 09:28:51;;;;;;;4.95;2.70;;;6.60;55.90;;;;;;6181355;23;20107;-80
2023/04/05 09:31:30;;;;;;;7.45;2.60;;;6.70;55.70;;;;;;6200254;23;20024;-80
2023/04/05 09:34:01;;;;;;;5.22;2.60;;;7.20;56.70;;;;;;6205529;23;20020;-79
2023/04/05 09:36:29;;;;;;;32.45;15.07;;;7.10;55.40;;;;;;6180236;23;20408;-78
2023/04/05 09:39:07;;;;;;;8.52;5.10;;;7.00;55.20;;;;;;6178826;23;20030;-78
2023/04/05 09:41:35;;;;;;;4.82;2.65;;;7.30;55.20;;;;;;6178886;23;20031;-77
2023/04/05 09:44:03;;;;;;;12.63;11.25;;;7.10;54.50;;;;;;6181373;23;20023;-78
2023/04/05 09:46:36;;;;;;;6.57;3.30;;;7.10;55.40;;;;;;6179472;23;20024;-78
2023/04/05 09:49:06;;;;;;;5.85;3.03;;;7.10;55.00;;;;;;6175814;23;20074;-79
2023/04/05 09:51:35;;;;;;;3.38;2.13;;;6.90;55.30;;;;;;6178867;23;20048;-78
2023/04/05 09:54:10;;;;;;;4.45;2.30;;;7.40;55.40;;;;;;6180042;23;20031;-79
2023/04/05 09:56:39;;;;;;;7.00;3.05;;;7.00;54.20;;;;;;6204523;23;20020;-78
2023/04/05 10:33:28;;;;;;;6.10;2.45;;;7.90;51.80;;;;;;6194888;23;20013;-78
2023/04/05 10:36:01;;;;;;;7.25;2.92;;;8.30;53.70;;;;;;6170626;23;20119;-79
2023/04/05 10:38:34;;;;;;;5.65;3.10;;;8.10;53.00;;;;;;6174400;23;20071;-78
2023/04/05 10:41:11;;;;;;;5.20;3.50;;;8.30;52.50;;;;;;6146520;23;20021;-78
2023/04/05 10:43:39;;;;;;;5.07;3.05;;;8.10;51.90;;;;;;6148813;23;20273;-78
2023/04/05 10:46:09;;;;;;;5.90;2.88;;;7.90;52.20;;;;;;6149447;23;20156;-78
2023/04/05 10:48:43;;;;;;;6.75;3.80;;;8.10;52.00;;;;;;6149127;23;20025;-78
2023/04/05 10:51:12;;;;;;;5.63;3.03;;;8.30;51.50;;;;;;6170601;23;20036;-79
2023/04/05 10:53:40;;;;;;;5.97;3.05;;;8.60;51.70;;;;;;6170577;23;20119;-79
2023/04/05 10:56:08;;;;;;;5.82;2.60;;;8.40;50.60;;;;;;6176176;23;20032;-78
2023/04/05 10:58:38;;;;;;;5.28;2.60;;;8.40;51.70;;;;;;6150375;23;20078;-78
2023/04/05 11:01:08;;;;;;;6.20;3.30;;;8.20;51.40;;;;;;6171726;23;20048;-78
2023/04/05 11:03:46;;;;;;;6.20;3.45;;;8.20;50.70;;;;;;6148149;23;20533;-80
2023/04/05 11:06:28;;;;;;;5.00;3.38;;;8.10;50.50;;;;;;6146877;23;20102;-79
2023/04/05 11:09:09;;;;;;;6.38;2.78;;;8.30;50.50;;;;;;6173522;23;20048;-78
2023/04/05 11:11:48;;;;;;;6.07;2.42;;;8.60;50.60;;;;;;6171888;23;20023;-79
2023/04/05 11:14:42;;;;;;;4.72;2.17;;;8.60;50.90;;;;;;6165616;23;20036;-79
2023/04/05 11:17:26;;;;;;;5.75;2.40;;;8.50;49.60;;;;;;6172950;23;20024;-78
2023/04/05 11:20:04;;;;;;;4.65;2.22;;;9.20;50.30;;;;;;6169240;23;20031;-79
2023/04/05 11:22:32;;;;;;;4.50;2.55;;;9.10;50.50;;;;;;6171178;23;20036;-80
2023/04/05 11:25:01;;;;;;;7.03;2.70;;;8.40;48.60;;;;;;6146188;23;20107;-80
2023/04/05 11:27:39;;;;;;;6.60;2.28;;;8.60;49.30;;;;;;6145732;23;20030;-80
2023/04/05 11:30:09;;;;;;;7.13;3.17;;;7.90;49.60;;;;;;6148298;23;20436;-79
2023/04/05 11:32:39;;;;;;;6.97;2.67;;;8.80;50.70;;;;;;6225210;23;20020;-79
2023/04/05 11:35:26;;;;;;;6.10;2.53;;;9.00;50.50;;;;;;6109248;23;20021;-80
2023/04/05 11:37:57;;;;;;;11.30;6.45;;;9.30;50.30;;;;;;6096553;23;20025;-80
2023/04/05 11:40:32;;;;;;;5.68;3.45;;;9.10;48.90;;;;;;6087158;23;20057;-80
2023/04/05 11:43:04;;;;;;;3.70;2.20;;;8.80;49.30;;;;;;6085725;23;20036;-80
2023/04/05 11:45:33;;;;;;;5.87;2.73;;;9.20;49.00;;;;;;6085831;23;20812;-77
2023/04/05 11:48:05;;;;;;;6.90;5.47;;;9.40;49.30;;;;;;6110962;23;20328;-78
2023/04/05 11:50:33;;;;;;;3.47;2.42;;;9.20;48.50;;;;;;6111727;23;20474;-78
2023/04/05 11:53:30;;;;;;;3.55;1.92;;;8.90;48.50;;;;;;6110936;23;20112;-77
2023/04/05 11:56:11;;;;;;;4.03;2.25;;;9.10;48.70;;;;;;6075452;23;20447;-78
2023/04/05 11:58:39;;;;;;;6.82;2.47;;;8.90;47.60;;;;;;6087950;23;20369;-78
2023/04/05 12:01:07;;;;;;;3.97;2.22;;;9.00;47.60;;;;;;6113628;23;20029;-78
2023/04/05 12:03:36;;;;;;;4.90;2.45;;;9.40;47.60;;;;;;6137257;23;20026;-78
2023/04/05 12:06:05;;;;;;;4.60;2.50;;;9.40;47.50;;;;;;6118143;23;20024;-80
2023/04/05 12:08:50;;;;;;;6.38;3.28;;;9.90;48.40;;;;;;6204503;23;20067;-78
2023/04/05 12:11:29;;;;;;;8.15;2.30;;;9.00;46.80;;;;;;6204553;23;20778;-80
2023/04/05 12:14:00;;;;;;;5.70;2.42;;;9.50;47.10;;;;;;6178185;23;20066;-79
2023/04/05 12:16:28;;;;;;;3.00;1.95;;;9.60;47.90;;;;;;6175855;23;20170;-78
2023/04/05 12:18:58;;;;;;;4.22;2.35;;;8.40;46.40;;;;;;6175608;23;20344;-78
2023/04/05 12:21:26;;;;;;;4.05;2.42;;;9.40;46.50;;;;;;6176229;23;20024;-78
2023/04/05 12:23:54;;;;;;;4.47;2.50;;;9.50;46.20;;;;;;6175651;23;20415;-78
2023/04/05 12:26:22;;;;;;;4.90;1.75;;;9.50;46.50;;;;;;6176889;23;20408;-79
2023/04/05 12:28:59;;;;;;;3.75;1.55;;;9.40;46.30;;;;;;6203055;23;20052;-80
2023/04/05 12:31:45;;;;;;;3.80;2.10;;;9.70;46.60;;;;;;6193686;23;20037;-80
2023/04/05 12:34:14;;;;;;;5.60;3.92;;;10.00;46.40;;;;;;6176027;23;20075;-79
2023/04/05 12:36:45;;;;;;;18.13;16.35;;;10.30;47.70;;;;;;6170156;23;20100;-78
2023/04/05 12:39:16;;;;;;;5.15;2.42;;;10.30;46.40;;;;;;6173110;23;20021;-79
2023/04/05 12:41:43;;;;;;;4.18;2.00;;;10.10;45.40;;;;;;6196710;23;20381;-78
2023/04/05 12:44:29;;;;;;;2.88;1.88;;;10.20;45.10;;;;;;6173405;23;20521;-79
2023/04/05 12:47:08;;;;;;;7.63;3.40;;;10.40;46.20;;;;;;6164369;23;20025;-78
2023/04/05 12:49:37;;;;;;;4.65;2.35;;;9.90;46.20;;;;;;6167914;23;20029;-78
2023/04/05 12:52:04;;;;;;;5.45;2.50;;;10.10;46.40;;;;;;6176671;23;20129;-78
2023/04/05 12:54:33;;;;;;;3.63;1.92;;;10.30;46.50;;;;;;6199843;23;20028;-80
2023/04/05 12:57:07;;;;;;;4.35;2.15;;;10.70;46.30;;;;;;6176859;23;20029;-78
2023/04/05 12:59:35;;;;;;;4.13;2.33;;;9.60;45.80;;;;;;6173484;23;20024;-77
2023/04/05 13:02:02;;;;;;;5.18;2.28;;;9.80;45.20;;;;;;6175864;23;20107;-80
2023/04/05 13:04:30;;;;;;;6.13;2.20;;;10.30;46.80;;;;;;6197942;23;20031;-80
2023/04/05 13:06:57;;;;;;;5.85;2.97;;;10.60;46.30;;;;;;6201452;23;20055;-79
2023/04/05 13:09:25;;;;;;;7.70;3.25;;;10.50;45.70;;;;;;6200626;23;20027;-79
2023/04/05 13:11:52;;;;;;;4.93;2.88;;;10.50;46.20;;;;;;6174984;23;20498;-79
2023/04/05 13:14:19;;;;;;;7.45;3.85;;;10.00;45.30;;;;;;6200287;23;20052;-78
2023/04/05 13:16:47;;;;;;;4.95;2.35;;;10.00;46.60;;;;;;6199177;23;20116;-77
2023/04/05 13:19:14;;;;;;;4.32;2.20;;;10.20;46.40;;;;;;6174817;23;20022;-78
2023/04/05 13:21:42;;;;;;;3.50;2.00;;;9.90;45.00;;;;;;6175349;23;20021;-78
2023/04/05 13:24:12;;;;;;;35.33;15.18;;;10.30;46.00;;;;;;6198468;23;20025;-78
2023/04/05 13:26:40;;;;;;;7.13;3.78;;;10.50;45.70;;;;;;6200406;23;20017;-78
2023/04/05 13:29:09;;;;;;;3.33;2.10;;;10.70;45.80;;;;;;6176848;23;20035;-80
2023/04/05 13:31:37;;;;;;;4.50;2.65;;;10.60;45.70;;;;;;6173416;23;20062;-78
2023/04/05 13:34:04;;;;;;;3.92;2.13;;;10.70;45.70;;;;;;6202863;23;20035;-78
2023/04/05 13:36:32;;;;;;;4.63;2.05;;;10.40;44.30;;;;;;6174630;23;20024;-78
2023/04/05 13:38:59;;;;;;;4.45;2.35;;;10.10;44.30;;;;;;6174896;23;20410;-78
2023/04/05 13:41:27;;;;;;;7.18;2.53;;;10.10;44.10;;;;;;6197989;23;20476;-78
2023/04/05 13:43:54;;;;;;;5.45;2.55;;;10.20;44.30;;;;;;6175676;23;20039;-78
2023/04/05 13:46:22;;;;;;;3.70;2.28;;;10.10;44.30;;;;;;6172916;23;20017;-78
2023/04/05 13:48:50;;;;;;;4.53;3.17;;;9.50;43.60;;;;;;6172385;23;20079;-81
2023/04/05 13:51:20;;;;;;;4.00;1.80;;;10.10;43.90;;;;;;6171641;23;20067;-81
2023/04/05 13:53:48;;;;;;;3.45;1.40;;;10.30;45.00;;;;;;6172250;23;20622;-77
2023/04/05 13:56:15;;;;;;;3.58;1.60;;;10.20;43.90;;;;;;6195404;23;20052;-78
2023/04/05 13:58:43;;;;;;;5.43;2.50;;;10.30;44.00;;;;;;6196378;23;20171;-78
2023/04/05 14:01:11;;;;;;;6.38;2.80;;;9.70;43.00;;;;;;6169756;23;20031;-78
2023/04/05 14:03:38;;;;;;;5.15;2.00;;;10.50;43.40;;;;;;6195823;23;20462;-78
2023/04/05 14:06:09;;;;;;;4.20;2.03;;;10.30;43.40;;;;;;6172374;23;20338;-78
2023/04/05 14:08:37;;;;;;;3.75;1.70;;;10.40;42.60;;;;;;6197342;23;20459;-81
2023/04/05 14:11:09;;;;;;;16.13;12.48;;;10.30;42.00;;;;;;6177885;23;20486;-80
2023/04/05 14:13:37;;;;;;;4.55;2.80;;;10.20;42.40;;;;;;6196820;23;20031;-79
2023/04/05 14:16:05;;;;;;;243.75;96.70;;;10.10;41.70;;;;;;6195477;23;20316;-79